createdAt,value
2023-05-06T00:01:40.700Z,98636.06
2023-05-06T00:04:44.574Z,98625.16
2023-05-06T00:07:47.475Z,98636.69
2023-05-06T00:10:50.243Z,98633.47
2023-05-06T00:13:53.971Z,98631.44
2023-05-06T00:16:56.527Z,98633.59
2023-05-06T00:20:00.399Z,98628.16
2023-05-06T00:23:03.057Z,98628.81
2023-05-06T00:26:06.094Z,98620.81
2023-05-06T00:29:08.770Z,98624.56
2023-05-06T00:32:11.498Z,98624.56
2023-05-06T00:35:15.532Z,98625.69
2023-05-06T00:38:19.571Z,98628.09
2023-05-06T00:41:22.416Z,98635.28
2023-05-06T00:44:25.071Z,98629.41
2023-05-06T00:47:27.787Z,98643.94
2023-05-06T00:50:33.201Z,98629.88
2023-05-06T00:53:35.858Z,98627.16
2023-05-06T00:56:38.530Z,98628.94
2023-05-06T00:59:41.267Z,98626.97
2023-05-06T01:02:47.558Z,98623.50
2023-05-06T01:06:04.137Z,98629.66
2023-05-06T01:09:14.629Z,98629.97
2023-05-06T01:12:22.467Z,98630.28
2023-05-06T01:15:30.258Z,98623.81
2023-05-06T01:18:33.709Z,98627.28
2023-05-06T01:21:37.880Z,98622.91
2023-05-06T01:24:42.650Z,98622.00
2023-05-06T01:27:45.152Z,98616.31
2023-05-06T01:30:54.449Z,98623.69
2023-05-06T01:34:06.681Z,98625.84
2023-05-06T01:37:14.991Z,98625.84
2023-05-06T01:40:19.199Z,98624.94
2023-05-06T01:43:22.574Z,98624.31
2023-05-06T01:46:25.999Z,98630.03
2023-05-06T01:49:28.526Z,98631.03
2023-05-06T01:52:31.213Z,98638.56
2023-05-06T01:55:35.132Z,98633.78
2023-05-06T01:58:38.310Z,98631.09
2023-05-06T02:01:42.155Z,98635.31
2023-05-06T02:04:45.016Z,98634.69
2023-05-06T02:07:47.497Z,98629.19
2023-05-06T02:10:51.414Z,98632.28
2023-05-06T02:13:53.916Z,98628.09
2023-05-06T02:16:56.429Z,98632.00
2023-05-06T02:19:59.019Z,98624.00
2023-05-06T02:23:01.597Z,98632.16
2023-05-06T02:26:05.691Z,98638.47
2023-05-06T02:29:08.185Z,98637.03
2023-05-06T02:32:10.847Z,98631.66
2023-05-06T02:35:13.341Z,98626.88
2023-05-06T02:38:15.844Z,98624.56
2023-05-06T02:41:19.663Z,98622.34
2023-05-06T02:44:22.219Z,98625.34
2023-05-06T02:47:25.209Z,98618.78
2023-05-06T02:50:27.907Z,98614.22
2023-05-06T02:53:30.504Z,98609.72
2023-05-06T02:56:35.105Z,98609.59
2023-05-06T02:59:37.869Z,98609.97
2023-05-06T03:02:40.767Z,98614.31
2023-05-06T03:05:43.326Z,98618.31
2023-05-06T03:08:46.184Z,98619.25
2023-05-06T03:11:50.232Z,98622.22
2023-05-06T03:14:52.723Z,98618.22
2023-05-06T03:17:55.346Z,98617.22
2023-05-06T03:20:57.916Z,98622.75
2023-05-06T03:24:00.946Z,98622.53
2023-05-06T03:27:04.954Z,98610.72
2023-05-06T03:30:09.500Z,98607.41
2023-05-06T03:33:12.189Z,98617.16
2023-05-06T03:36:15.077Z,98605.72
2023-05-06T03:39:17.608Z,98611.09
2023-05-06T03:42:21.599Z,98615.00
2023-05-06T03:45:24.102Z,98610.31
2023-05-06T03:48:26.754Z,98607.47
2023-05-06T03:51:29.495Z,98601.13
2023-05-06T03:54:32.065Z,98601.66
2023-05-06T03:57:36.175Z,98597.38
2023-05-06T04:00:39.044Z,98597.63
2023-05-06T04:03:41.679Z,98593.28
2023-05-06T04:06:44.977Z,98598.53
2023-05-06T04:09:47.501Z,98600.34
2023-05-06T04:12:52.279Z,98606.19
2023-05-06T04:15:55.163Z,98609.63
2023-05-06T04:18:59.027Z,98606.56
2023-05-06T04:22:02.328Z,98610.31
2023-05-06T04:25:05.392Z,98603.22
2023-05-06T04:28:09.519Z,98608.59
2023-05-06T04:31:12.212Z,98610.53
2023-05-06T04:34:15.156Z,98615.09
2023-05-06T04:37:18.867Z,98616.59
2023-05-06T04:40:21.663Z,98625.97
2023-05-06T04:43:26.471Z,98619.78
2023-05-06T04:46:29.109Z,98628.38
2023-05-06T04:49:31.687Z,98627.16
2023-05-06T04:52:34.832Z,98634.69
2023-05-06T04:55:37.318Z,98628.88
2023-05-06T04:58:41.301Z,98630.81
2023-05-06T05:01:44.025Z,98634.38
2023-05-06T05:04:46.668Z,98644.09
2023-05-06T05:07:49.223Z,98644.88
2023-05-06T05:10:51.923Z,98643.47
2023-05-06T05:13:57.405Z,98648.59
2023-05-06T05:17:00.753Z,98644.72
2023-05-06T05:20:04.774Z,98652.22
2023-05-06T05:23:07.367Z,98656.50
2023-05-06T05:26:09.887Z,98660.72
2023-05-06T05:29:14.227Z,98657.72
2023-05-06T05:32:17.082Z,98656.84
2023-05-06T05:35:19.807Z,98667.97
2023-05-06T05:38:23.512Z,98669.59
2023-05-06T05:41:26.855Z,98674.94
2023-05-06T05:44:31.245Z,98677.50
2023-05-06T05:47:33.834Z,98672.34
2023-05-06T05:50:36.451Z,98673.25
2023-05-06T05:53:39.078Z,98671.59
2023-05-06T05:56:41.721Z,98668.81
2023-05-06T05:59:45.692Z,98677.19
2023-05-06T06:02:48.378Z,98673.53
2023-05-06T06:05:52.865Z,98673.09
2023-05-06T06:08:55.574Z,98668.59
2023-05-06T06:11:58.225Z,98670.69
2023-05-06T06:15:02.346Z,98674.94
2023-05-06T06:18:05.332Z,98682.97
2023-05-06T06:21:07.947Z,98680.31
2023-05-06T06:24:10.480Z,98668.13
2023-05-06T06:27:13.157Z,98680.78
2023-05-06T06:30:17.294Z,98679.97
2023-05-06T06:33:19.916Z,98678.66
2023-05-06T06:36:22.683Z,98682.09
2023-05-06T06:39:25.871Z,98684.44
2023-05-06T06:42:28.475Z,98681.03
2023-05-06T06:45:32.493Z,98689.78
2023-05-06T06:48:35.853Z,98697.13
2023-05-06T06:51:38.372Z,98703.72
2023-05-06T06:54:41.228Z,98693.09
2023-05-06T06:57:43.838Z,98698.34
2023-05-06T07:00:47.853Z,98693.91
2023-05-06T07:03:50.827Z,98696.50
2023-05-06T07:06:53.764Z,98697.78
2023-05-06T07:09:56.396Z,98708.91
2023-05-06T07:12:59.185Z,98699.00
2023-05-06T07:16:03.109Z,98704.19
2023-05-06T07:19:05.658Z,98707.03
2023-05-06T07:22:08.835Z,98698.50
2023-05-06T07:25:11.670Z,98704.50
2023-05-06T07:28:15.610Z,98702.94
2023-05-06T07:31:21.036Z,98706.88
2023-05-06T07:34:23.707Z,98708.53
2023-05-06T07:37:26.215Z,98710.47
2023-05-06T07:40:29.032Z,98710.53
2023-05-06T07:43:31.826Z,98720.81
2023-05-06T07:46:36.239Z,98719.41
2023-05-06T07:49:40.728Z,98720.19
2023-05-06T07:52:43.739Z,98722.16
2023-05-06T07:55:46.708Z,98717.38
2023-05-06T07:58:50.118Z,98717.59
2023-05-06T08:01:54.309Z,98716.47
2023-05-06T08:04:57.107Z,98715.47
2023-05-06T08:08:00.336Z,98722.66
2023-05-06T08:11:03.185Z,98727.06
2023-05-06T08:14:05.948Z,98729.00
2023-05-06T08:17:09.948Z,98720.94
2023-05-06T08:20:14.412Z,98724.44
2023-05-06T08:23:17.089Z,98729.75
2023-05-06T08:26:19.829Z,98725.81
2023-05-06T08:29:22.552Z,98722.66
2023-05-06T08:32:26.867Z,98730.16
2023-05-06T08:35:29.642Z,98727.75
2023-05-06T08:38:32.524Z,98723.78
2023-05-06T08:41:35.173Z,98724.53
2023-05-06T08:44:38.132Z,98720.91
2023-05-06T08:47:42.587Z,98724.53
2023-05-06T08:50:45.673Z,98731.72
2023-05-06T08:53:48.841Z,98732.16
2023-05-06T08:56:54.230Z,98721.47
2023-05-06T08:59:57.005Z,98719.94
2023-05-06T09:03:01.756Z,98739.34
2023-05-06T09:06:04.952Z,98731.81
2023-05-06T09:09:07.381Z,98730.63
2023-05-06T09:12:11.509Z,98725.44
2023-05-06T09:15:14.520Z,98724.53
2023-05-06T09:18:18.637Z,98728.81
2023-05-06T09:21:21.366Z,98720.72
2023-05-06T09:24:25.220Z,98728.13
2023-05-06T09:27:29.645Z,98723.09
2023-05-06T09:30:32.155Z,98723.72
2023-05-06T09:33:37.282Z,98722.88
2023-05-06T09:36:40.129Z,98710.94
2023-05-06T09:39:42.711Z,98706.94
2023-05-06T09:42:45.708Z,98708.88
2023-05-06T09:45:48.261Z,98714.13
2023-05-06T09:48:53.040Z,98714.47
2023-05-06T09:51:57.729Z,98704.81
2023-05-06T09:55:00.535Z,98703.59
2023-05-06T09:58:04.724Z,98705.50
2023-05-06T10:01:09.006Z,98699.59
2023-05-06T10:04:14.468Z,98698.84
2023-05-06T10:07:19.652Z,98689.31
2023-05-06T10:10:25.300Z,98682.50
2023-05-06T10:13:28.327Z,98685.56
2023-05-06T10:16:31.232Z,98685.06
2023-05-06T10:19:35.293Z,98681.94
2023-05-06T10:22:42.828Z,98678.38
2023-05-06T10:25:47.891Z,98682.06
2023-05-06T10:28:53.216Z,98669.03
2023-05-06T10:31:57.668Z,98667.16
2023-05-06T10:35:09.655Z,98666.13
2023-05-06T10:38:16.442Z,98661.97
2023-05-06T10:41:21.191Z,98658.59
2023-05-06T10:44:57.394Z,98654.09
2023-05-06T10:48:12.816Z,98650.75
2023-05-06T10:51:24.774Z,98638.69
2023-05-06T10:54:27.742Z,98647.47
2023-05-06T10:57:31.051Z,98646.69
2023-05-06T11:00:34.944Z,98642.38
2023-05-06T11:03:37.720Z,98633.13
2023-05-06T11:06:43.107Z,98632.09
2023-05-06T11:09:55.840Z,98626.91
2023-05-06T11:12:58.632Z,98630.19
2023-05-06T11:16:02.539Z,98629.91
2023-05-06T11:19:06.716Z,98623.66
2023-05-06T11:22:39.396Z,98624.47
2023-05-06T11:25:43.518Z,98614.38
2023-05-06T11:28:47.943Z,98614.25
2023-05-06T11:31:50.909Z,98619.97
2023-05-06T11:34:55.438Z,98613.78
2023-05-06T11:37:59.414Z,98615.50
2023-05-06T11:41:02.158Z,98611.09
2023-05-06T11:44:04.817Z,98609.22
2023-05-06T11:47:08.678Z,98614.66
2023-05-06T11:50:12.124Z,98605.53
2023-05-06T11:53:18.958Z,98601.91
2023-05-06T11:56:21.781Z,98603.53
2023-05-06T11:59:30.194Z,98599.59
2023-05-06T12:02:32.819Z,98605.84
2023-05-06T12:05:35.558Z,98609.31
2023-05-06T12:08:39.684Z,98611.19
2023-05-06T12:11:44.883Z,98603.31
2023-05-06T12:14:47.956Z,98604.75
2023-05-06T12:17:50.470Z,98613.19
2023-05-06T12:20:54.438Z,98600.88
2023-05-06T12:23:59.313Z,98599.44
2023-05-06T12:27:01.844Z,98594.00
2023-05-06T12:30:04.877Z,98600.47
2023-05-06T12:33:07.942Z,98593.75
2023-05-06T12:36:10.720Z,98594.00
2023-05-06T12:39:14.798Z,98587.13
2023-05-06T12:42:20.447Z,98586.22
2023-05-06T12:45:23.458Z,98597.34
2023-05-06T12:48:25.844Z,98585.41
2023-05-06T12:51:28.875Z,98593.53
2023-05-06T12:54:32.743Z,98594.75
2023-05-06T12:57:35.733Z,98584.69
2023-05-06T13:00:38.373Z,98587.44
2023-05-06T13:03:41.319Z,98580.00
2023-05-06T13:06:43.968Z,98578.66
2023-05-06T13:09:48.243Z,98580.34
2023-05-06T13:12:50.648Z,98574.88
2023-05-06T13:15:53.679Z,98578.84
2023-05-06T13:18:56.181Z,98564.97
2023-05-06T13:21:58.871Z,98555.28
2023-05-06T13:25:03.255Z,98554.66
2023-05-06T13:28:05.988Z,98540.41
2023-05-06T13:31:08.791Z,98537.44
2023-05-06T13:34:11.733Z,98531.47
2023-05-06T13:37:14.226Z,98537.84
2023-05-06T13:40:18.136Z,98529.81
2023-05-06T13:43:20.704Z,98526.00
2023-05-06T13:46:23.258Z,98516.72
2023-05-06T13:49:25.875Z,98510.06
2023-05-06T13:52:28.398Z,98508.69
2023-05-06T13:55:32.706Z,98510.41
2023-05-06T13:58:35.505Z,98505.63
2023-05-06T14:01:38.149Z,98503.88
2023-05-06T14:04:40.721Z,98500.50
2023-05-06T14:07:43.369Z,98496.28
2023-05-06T14:10:47.519Z,98492.59
2023-05-06T14:13:49.937Z,98495.59
2023-05-06T14:16:54.583Z,98483.66
2023-05-06T14:19:57.027Z,98487.06
2023-05-06T14:22:59.453Z,98477.53
2023-05-06T14:26:03.390Z,98476.53
2023-05-06T14:29:05.753Z,98470.75
2023-05-06T14:32:08.391Z,98476.81
2023-05-06T14:35:11.730Z,98466.38
2023-05-06T14:38:14.484Z,98468.47
2023-05-06T14:41:18.645Z,98464.84
2023-05-06T14:44:21.152Z,98456.88
2023-05-06T14:47:23.682Z,98453.75
2023-05-06T14:50:26.270Z,98454.69
2023-05-06T14:53:29.000Z,98447.84
2023-05-06T14:56:32.740Z,98446.56
2023-05-06T14:59:35.613Z,98436.94
2023-05-06T15:02:40.507Z,98439.53
2023-05-06T15:05:43.170Z,98443.50
2023-05-06T15:08:45.999Z,98443.09
2023-05-06T15:11:50.442Z,98438.19
2023-05-06T15:14:52.808Z,98434.69
2023-05-06T15:17:55.591Z,98434.00
2023-05-06T15:21:02.247Z,98439.00
2023-05-06T15:24:04.914Z,98434.16
2023-05-06T15:27:09.240Z,98433.69
2023-05-06T15:30:12.141Z,98441.38
2023-05-06T15:33:14.982Z,98435.09
2023-05-06T15:36:17.848Z,98432.00
2023-05-06T15:39:20.381Z,98438.34
2023-05-06T15:42:24.560Z,98434.09
2023-05-06T15:45:27.202Z,98436.44
2023-05-06T15:48:30.097Z,98429.25
2023-05-06T15:51:32.556Z,98438.00
2023-05-06T15:54:37.545Z,98434.38
2023-05-06T15:57:42.971Z,98433.28
2023-05-06T16:00:45.504Z,98428.41
2023-05-06T16:03:48.188Z,98427.63
2023-05-06T16:06:51.362Z,98423.38
2023-05-06T16:09:53.795Z,98418.94
2023-05-06T16:12:57.767Z,98426.22
2023-05-06T16:16:01.569Z,98421.19
2023-05-06T16:19:04.404Z,98423.50
2023-05-06T16:22:06.730Z,98418.13
2023-05-06T16:25:09.626Z,98419.50
2023-05-06T16:28:13.434Z,98420.03
2023-05-06T16:31:16.166Z,98416.41
2023-05-06T16:34:18.823Z,98411.13
2023-05-06T16:37:21.259Z,98415.59
2023-05-06T16:40:23.755Z,98410.41
2023-05-06T16:43:28.046Z,98405.16
2023-05-06T16:46:30.681Z,98410.97
2023-05-06T16:49:33.891Z,98408.63
2023-05-06T16:52:36.514Z,98404.53
2023-05-06T16:55:39.721Z,98398.91
2023-05-06T16:58:43.573Z,98396.19
2023-05-06T17:01:46.177Z,98406.31
2023-05-06T17:04:48.621Z,98399.13
2023-05-06T17:07:51.328Z,98389.16
2023-05-06T17:10:54.517Z,98382.41
2023-05-06T17:13:58.633Z,98391.66
2023-05-06T17:17:04.083Z,98387.13
2023-05-06T17:20:07.239Z,98381.66
2023-05-06T17:23:09.718Z,98380.09
2023-05-06T17:26:12.480Z,98381.03
2023-05-06T17:29:16.402Z,98378.59
2023-05-06T17:32:19.877Z,98379.38
2023-05-06T17:35:22.740Z,98379.59
2023-05-06T17:38:26.015Z,98371.88
2023-05-06T17:41:28.836Z,98376.91
2023-05-06T17:44:33.086Z,98379.78
2023-05-06T17:47:35.980Z,98362.84
2023-05-06T17:50:38.812Z,98368.28
2023-05-06T17:53:41.566Z,98371.66
2023-05-06T17:56:49.057Z,98374.03
2023-05-06T17:59:52.957Z,98371.72
2023-05-06T18:02:56.553Z,98389.41
2023-05-06T18:05:59.981Z,98379.56
2023-05-06T18:09:02.374Z,98379.31
2023-05-06T18:12:05.147Z,98393.34
2023-05-06T18:15:10.159Z,98388.72
2023-05-06T18:18:12.805Z,98393.16
2023-05-06T18:21:15.498Z,98392.84
2023-05-06T18:24:18.258Z,98394.53
2023-05-06T18:27:20.880Z,98392.63
2023-05-06T18:30:24.754Z,98399.34
2023-05-06T18:33:27.860Z,98398.22
2023-05-06T18:36:31.006Z,98406.56
2023-05-06T18:39:33.487Z,98406.16
2023-05-06T18:42:35.983Z,98417.19
2023-05-06T18:45:39.853Z,98413.59
2023-05-06T18:48:42.303Z,98419.47
2023-05-06T18:51:44.681Z,98419.75
2023-05-06T18:54:47.248Z,98433.13
2023-05-06T18:57:50.247Z,98429.81
2023-05-06T19:00:55.618Z,98432.56
2023-05-06T19:03:58.140Z,98436.13
2023-05-06T19:07:01.286Z,98433.69
2023-05-06T19:10:03.974Z,98436.72
2023-05-06T19:13:07.444Z,98443.75
2023-05-06T19:16:11.514Z,98442.94
2023-05-06T19:19:14.118Z,98446.09
2023-05-06T19:22:17.029Z,98440.94
2023-05-06T19:25:21.253Z,98452.28
2023-05-06T19:28:23.780Z,98453.81
2023-05-06T19:31:27.882Z,98447.81
2023-05-06T19:34:30.378Z,98452.84
2023-05-06T19:37:35.306Z,98453.19
2023-05-06T19:40:37.689Z,98460.69
2023-05-06T19:43:43.705Z,98454.75
2023-05-06T19:46:47.698Z,98457.47
2023-05-06T19:49:51.322Z,98451.81
2023-05-06T19:52:53.800Z,98452.94
2023-05-06T19:55:57.942Z,98456.47
2023-05-06T19:59:00.397Z,98453.88
2023-05-06T20:02:04.496Z,98458.97
2023-05-06T20:05:07.445Z,98458.41
2023-05-06T20:08:11.171Z,98454.34
2023-05-06T20:11:13.617Z,98462.09
2023-05-06T20:14:16.153Z,98461.31
2023-05-06T20:17:20.279Z,98452.94
2023-05-06T20:20:23.063Z,98464.00
2023-05-06T20:23:25.949Z,98457.97
2023-05-06T20:26:28.296Z,98460.63
2023-05-06T20:29:30.810Z,98456.84
2023-05-06T20:32:34.938Z,98460.75
2023-05-06T20:35:40.347Z,98460.63
2023-05-06T20:38:42.753Z,98463.28
2023-05-06T20:41:45.332Z,98457.28
2023-05-06T20:44:47.744Z,98456.97
2023-05-06T20:47:51.575Z,98457.03
2023-05-06T20:50:54.823Z,98447.06
2023-05-06T20:53:58.320Z,98450.16
2023-05-06T20:57:02.545Z,98452.00
2023-05-06T21:00:07.375Z,98460.84
2023-05-06T21:03:11.287Z,98453.72
2023-05-06T21:06:13.896Z,98463.47
2023-05-06T21:09:16.370Z,98450.66
2023-05-06T21:12:18.716Z,98452.53
2023-05-06T21:15:21.152Z,98453.72
2023-05-06T21:18:25.139Z,98448.50
2023-05-06T21:21:30.111Z,98441.59
2023-05-06T21:24:32.560Z,98446.28
2023-05-06T21:27:35.041Z,98452.28
2023-05-06T21:30:37.694Z,98457.72
2023-05-06T21:33:41.693Z,98451.88
2023-05-06T21:36:44.086Z,98456.06
2023-05-06T21:39:46.458Z,98449.38
2023-05-06T21:42:48.837Z,98445.41
2023-05-06T21:45:51.226Z,98449.59
2023-05-06T21:48:54.878Z,98435.22
2023-05-06T21:51:57.395Z,98444.22
2023-05-06T21:55:00.437Z,98441.34
2023-05-06T21:58:02.783Z,98434.22
2023-05-06T22:01:05.163Z,98444.78
2023-05-06T22:04:12.654Z,98436.09
2023-05-06T22:07:15.157Z,98445.06
2023-05-06T22:10:17.519Z,98449.72
2023-05-06T22:13:20.081Z,98451.72
2023-05-06T22:16:22.619Z,98439.25
2023-05-06T22:19:26.581Z,98434.00
2023-05-06T22:22:28.977Z,98446.25
2023-05-06T22:25:31.333Z,98442.91
2023-05-06T22:28:33.772Z,98445.22
2023-05-06T22:31:36.522Z,98440.84
2023-05-06T22:34:40.565Z,98444.06
2023-05-06T22:37:43.123Z,98449.91
2023-05-06T22:40:45.627Z,98448.41
2023-05-06T22:43:48.012Z,98447.25
2023-05-06T22:46:50.501Z,98449.09
2023-05-06T22:49:54.587Z,98453.38
2023-05-06T22:52:57.130Z,98442.38
2023-05-06T22:55:59.812Z,98443.53
2023-05-06T22:59:02.228Z,98442.03
2023-05-06T23:02:04.761Z,98442.53
2023-05-06T23:05:09.171Z,98434.44
2023-05-06T23:08:11.925Z,98436.09
2023-05-06T23:11:14.252Z,98432.97
2023-05-06T23:14:17.319Z,98441.84
2023-05-06T23:17:19.701Z,98440.25
2023-05-06T23:20:23.558Z,98449.81
2023-05-06T23:23:26.088Z,98446.09
2023-05-06T23:26:28.854Z,98439.91
2023-05-06T23:29:31.391Z,98455.50
2023-05-06T23:32:33.845Z,98454.28
2023-05-06T23:35:37.703Z,98449.19
2023-05-06T23:38:40.120Z,98447.03
2023-05-06T23:41:42.912Z,98443.66
2023-05-06T23:44:45.442Z,98446.91
2023-05-06T23:47:48.063Z,98458.03
2023-05-06T23:50:51.975Z,98450.56
2023-05-06T23:53:54.636Z,98451.00
2023-05-06T23:56:57.252Z,98440.63
2023-05-06T23:59:59.872Z,98440.03
